createdAt,value
2023-05-24T00:00:41.227Z,100.00
2023-05-24T00:01:38.520Z,100.00
2023-05-24T00:02:35.438Z,100.00
2023-05-24T00:03:34.943Z,100.00
2023-05-24T00:04:32.150Z,100.00
2023-05-24T00:05:31.309Z,100.00
2023-05-24T00:06:28.669Z,100.00
2023-05-24T00:07:25.911Z,100.00
2023-05-24T00:08:22.809Z,100.00
2023-05-24T00:09:19.630Z,100.00
2023-05-24T00:10:18.982Z,100.00
2023-05-24T00:11:15.827Z,100.00
2023-05-24T00:12:12.683Z,100.00
2023-05-24T00:13:09.607Z,100.00
2023-05-24T00:14:06.559Z,100.00
2023-05-24T00:15:05.909Z,100.00
2023-05-24T00:16:03.095Z,100.00
2023-05-24T00:17:00.098Z,100.00
2023-05-24T00:17:57.053Z,100.00
2023-05-24T00:18:54.962Z,100.00
2023-05-24T00:19:52.736Z,100.00
2023-05-24T00:20:49.732Z,100.00
2023-05-24T00:21:46.937Z,100.00
2023-05-24T00:22:43.833Z,100.00
2023-05-24T00:23:42.275Z,100.00
2023-05-24T00:24:40.381Z,100.00
2023-05-24T00:25:37.234Z,100.00
2023-05-24T00:26:34.330Z,100.00
2023-05-24T00:27:31.807Z,100.00
2023-05-24T00:28:28.689Z,100.00
2023-05-24T00:29:25.622Z,100.00
2023-05-24T00:30:22.543Z,100.00
2023-05-24T00:31:19.477Z,100.00
2023-05-24T00:32:17.549Z,100.00
2023-05-24T00:33:14.401Z,100.00
2023-05-24T00:34:11.361Z,100.00
2023-05-24T00:35:08.605Z,100.00
2023-05-24T00:36:05.979Z,100.00
2023-05-24T00:37:02.850Z,100.00
2023-05-24T00:38:00.031Z,100.00
2023-05-24T00:38:56.948Z,100.00
2023-05-24T00:39:53.766Z,100.00
2023-05-24T00:40:50.726Z,100.00
2023-05-24T00:41:47.619Z,100.00
2023-05-24T00:42:44.489Z,100.00
2023-05-24T00:43:44.290Z,100.00
2023-05-24T00:44:41.209Z,100.00
2023-05-24T00:45:37.972Z,100.00
2023-05-24T00:46:35.759Z,100.00
2023-05-24T00:47:34.333Z,100.00
2023-05-24T00:48:31.421Z,100.00
2023-05-24T00:49:28.470Z,100.00
2023-05-24T00:50:26.120Z,100.00
2023-05-24T00:51:26.630Z,100.00
2023-05-24T00:52:24.084Z,100.00
2023-05-24T00:53:21.546Z,100.00
2023-05-24T00:54:18.649Z,100.00
2023-05-24T00:55:16.453Z,100.00
2023-05-24T00:56:15.414Z,100.00
2023-05-24T00:57:15.824Z,100.00
2023-05-24T00:58:12.722Z,100.00
2023-05-24T00:59:10.070Z,100.00
2023-05-24T01:00:08.264Z,100.00
2023-05-24T01:01:06.045Z,100.00
2023-05-24T01:02:03.245Z,100.00
2023-05-24T01:03:01.355Z,100.00
2023-05-24T01:04:00.751Z,100.00
2023-05-24T01:05:00.143Z,100.00
2023-05-24T01:06:02.596Z,100.00
2023-05-24T01:07:17.491Z,100.00
2023-05-24T01:08:38.068Z,100.00
2023-05-24T01:10:01.543Z,100.00
2023-05-24T01:11:06.674Z,100.00
2023-05-24T01:12:28.119Z,100.00
2023-05-24T01:13:47.777Z,100.00
2023-05-24T01:15:13.255Z,100.00
2023-05-24T01:16:23.057Z,100.00
2023-05-24T01:17:26.782Z,100.00
2023-05-24T01:18:35.209Z,100.00
2023-05-24T01:19:50.072Z,100.00
2023-05-24T01:20:57.220Z,100.00
2023-05-24T01:22:21.246Z,100.00
2023-05-24T01:23:34.382Z,100.00
2023-05-24T01:24:51.306Z,100.00
2023-05-24T01:26:09.663Z,100.00
2023-05-24T01:27:08.669Z,100.00
2023-05-24T01:28:08.834Z,100.00
2023-05-24T01:29:07.876Z,100.00
2023-05-24T01:30:06.258Z,100.00
2023-05-24T01:31:04.672Z,100.00
2023-05-24T01:32:03.408Z,100.00
2023-05-24T01:33:00.456Z,100.00
2023-05-24T01:33:57.437Z,100.00
2023-05-24T01:34:54.299Z,100.00
2023-05-24T01:35:52.393Z,100.00
2023-05-24T01:36:49.609Z,100.00
2023-05-24T01:37:46.588Z,100.00
2023-05-24T01:38:44.156Z,100.00
2023-05-24T01:39:42.047Z,100.00
2023-05-24T01:40:41.466Z,100.00
2023-05-24T01:42:16.789Z,100.00
2023-05-24T01:43:31.688Z,100.00
2023-05-24T01:44:52.585Z,100.00
2023-05-24T01:46:12.022Z,100.00
2023-05-24T01:47:33.128Z,100.00
2023-05-24T01:48:41.876Z,100.00
2023-05-24T01:49:45.588Z,100.00
2023-05-24T01:50:58.816Z,100.00
2023-05-24T01:52:15.864Z,100.00
2023-05-24T01:53:17.997Z,100.00
2023-05-24T01:54:21.318Z,100.00
2023-05-24T01:55:19.414Z,100.00
2023-05-24T01:56:20.610Z,100.00
2023-05-24T01:57:21.401Z,100.00
2023-05-24T01:58:23.199Z,100.00
2023-05-24T01:59:23.442Z,100.00
2023-05-24T02:00:22.355Z,100.00
2023-05-24T02:01:19.817Z,100.00
2023-05-24T02:02:17.642Z,100.00
2023-05-24T02:03:16.390Z,100.00
2023-05-24T02:04:13.690Z,100.00
2023-05-24T02:05:12.684Z,100.00
2023-05-24T02:06:10.915Z,100.00
2023-05-24T02:07:07.962Z,100.00
2023-05-24T02:08:04.926Z,100.00
2023-05-24T02:09:01.850Z,100.00
2023-05-24T02:11:12.957Z,100.00
2023-05-24T02:12:11.125Z,100.00
2023-05-24T02:13:09.218Z,100.00
2023-05-24T02:14:06.153Z,100.00
2023-05-24T02:15:03.616Z,100.00
2023-05-24T02:16:00.489Z,100.00
2023-05-24T02:16:59.339Z,100.00
2023-05-24T02:17:56.623Z,100.00
2023-05-24T02:18:53.594Z,100.00
2023-05-24T02:19:51.529Z,100.00
2023-05-24T02:20:49.060Z,100.00
2023-05-24T02:21:47.328Z,100.00
2023-05-24T02:22:44.456Z,100.00
2023-05-24T02:23:41.816Z,100.00
2023-05-24T02:24:40.691Z,100.00
2023-05-24T02:25:37.568Z,100.00
2023-05-24T02:26:34.482Z,100.00
2023-05-24T02:27:31.388Z,100.00
2023-05-24T02:28:30.292Z,100.00
2023-05-24T02:29:27.616Z,100.00
2023-05-24T02:30:24.788Z,100.00
2023-05-24T02:31:21.902Z,100.00
2023-05-24T02:32:19.068Z,100.00
2023-05-24T02:33:16.003Z,100.00
2023-05-24T02:34:12.853Z,100.00
2023-05-24T02:35:09.688Z,100.00
2023-05-24T02:36:06.876Z,100.00
2023-05-24T02:37:05.485Z,100.00
2023-05-24T02:38:03.950Z,100.00
2023-05-24T02:39:00.900Z,100.00
2023-05-24T02:39:57.828Z,100.00
2023-05-24T02:40:56.324Z,100.00
2023-05-24T02:41:53.238Z,100.00
2023-05-24T02:42:50.307Z,100.00
2023-05-24T02:43:48.658Z,100.00
2023-05-24T02:44:49.085Z,100.00
2023-05-24T02:45:46.443Z,100.00
2023-05-24T02:46:43.781Z,100.00
2023-05-24T02:47:40.735Z,100.00
2023-05-24T02:48:37.649Z,100.00
2023-05-24T02:49:34.675Z,100.00
2023-05-24T02:50:31.734Z,100.00
2023-05-24T02:51:28.601Z,100.00
2023-05-24T02:52:25.729Z,100.00
2023-05-24T02:53:22.562Z,100.00
2023-05-24T02:54:19.569Z,100.00
2023-05-24T02:55:16.592Z,100.00
2023-05-24T02:56:14.175Z,100.00
2023-05-24T02:57:12.108Z,100.00
2023-05-24T02:58:09.186Z,100.00
2023-05-24T02:59:06.191Z,100.00
2023-05-24T03:00:03.221Z,100.00
2023-05-24T03:01:00.183Z,100.00
2023-05-24T03:01:57.210Z,100.00
2023-05-24T03:02:55.629Z,100.00
2023-05-24T03:03:52.832Z,100.00
2023-05-24T03:04:49.827Z,100.00
2023-05-24T03:05:46.724Z,100.00
2023-05-24T03:06:43.619Z,100.00
2023-05-24T03:07:41.050Z,100.00
2023-05-24T03:08:37.831Z,100.00
2023-05-24T03:09:34.765Z,100.00
2023-05-24T03:10:31.668Z,100.00
2023-05-24T03:11:28.559Z,100.00
2023-05-24T03:12:25.366Z,100.00
2023-05-24T03:13:22.225Z,100.00
2023-05-24T03:14:20.598Z,100.00
2023-05-24T03:15:17.495Z,100.00
2023-05-24T03:16:14.874Z,100.00
2023-05-24T03:17:11.728Z,100.00
2023-05-24T03:18:08.915Z,100.00
2023-05-24T03:19:08.378Z,100.00
2023-05-24T03:20:08.014Z,100.00
2023-05-24T03:21:07.255Z,100.00
2023-05-24T03:22:04.386Z,100.00
2023-05-24T03:23:01.276Z,100.00
2023-05-24T03:23:58.533Z,100.00
2023-05-24T03:24:56.378Z,100.00
2023-05-24T03:25:53.561Z,100.00
2023-05-24T03:26:50.543Z,100.00
2023-05-24T03:27:47.435Z,100.00
2023-05-24T03:28:45.395Z,100.00
2023-05-24T03:29:42.314Z,100.00
2023-05-24T03:30:39.197Z,100.00
2023-05-24T03:31:36.222Z,100.00
2023-05-24T03:32:33.652Z,100.00
2023-05-24T03:33:32.277Z,100.00
2023-05-24T03:34:30.383Z,100.00
2023-05-24T03:35:27.498Z,100.00
2023-05-24T03:36:26.297Z,100.00
2023-05-24T03:37:24.151Z,100.00
2023-05-24T03:38:21.155Z,100.00
2023-05-24T03:39:18.519Z,100.00
2023-05-24T03:40:15.921Z,100.00
2023-05-24T03:41:12.784Z,100.00
2023-05-24T03:42:10.186Z,100.00
2023-05-24T03:43:07.260Z,100.00
2023-05-24T03:44:04.255Z,100.00
2023-05-24T03:45:01.140Z,100.00
2023-05-24T03:45:58.093Z,100.00
2023-05-24T03:46:54.984Z,100.00
2023-05-24T03:47:51.941Z,100.00
2023-05-24T03:48:49.090Z,100.00
2023-05-24T03:49:47.434Z,100.00
2023-05-24T03:50:44.518Z,100.00
2023-05-24T03:51:41.614Z,100.00
2023-05-24T03:52:38.500Z,100.00
2023-05-24T03:53:35.463Z,100.00
2023-05-24T03:54:32.586Z,100.00
2023-05-24T03:55:29.407Z,100.00
2023-05-24T03:56:26.864Z,100.00
2023-05-24T03:57:24.987Z,100.00
2023-05-24T03:58:23.606Z,100.00
2023-05-24T03:59:23.589Z,100.00
2023-05-24T04:00:20.524Z,100.00
2023-05-24T04:01:29.223Z,100.00
2023-05-24T04:02:29.348Z,100.00
2023-05-24T04:03:26.420Z,100.00
2023-05-24T04:04:23.588Z,100.00
2023-05-24T04:05:20.637Z,100.00
2023-05-24T04:06:17.701Z,100.00
2023-05-24T04:07:15.625Z,100.00
2023-05-24T04:08:15.088Z,100.00
2023-05-24T04:09:12.444Z,100.00
2023-05-24T04:10:09.687Z,100.00
2023-05-24T04:11:06.713Z,100.00
2023-05-24T04:12:03.614Z,100.00
2023-05-24T04:13:00.847Z,100.00
2023-05-24T04:14:00.744Z,100.00
2023-05-24T04:14:57.731Z,100.00
2023-05-24T04:15:54.857Z,100.00
2023-05-24T04:16:52.178Z,100.00
2023-05-24T04:17:55.145Z,100.00
2023-05-24T04:18:52.333Z,100.00
2023-05-24T04:19:49.278Z,100.00
2023-05-24T04:20:46.197Z,100.00
2023-05-24T04:21:43.174Z,100.00
2023-05-24T04:22:40.611Z,100.00
2023-05-24T04:23:37.554Z,100.00
2023-05-24T04:24:34.493Z,100.00
2023-05-24T04:25:33.534Z,100.00
2023-05-24T04:26:31.333Z,100.00
2023-05-24T04:27:28.221Z,100.00
2023-05-24T04:28:26.359Z,100.00
2023-05-24T04:29:26.641Z,100.00
2023-05-24T04:30:23.610Z,100.00
2023-05-24T04:31:21.586Z,100.00
2023-05-24T04:32:19.911Z,100.00
2023-05-24T04:33:17.059Z,100.00
2023-05-24T04:34:14.606Z,100.00
2023-05-24T04:35:12.306Z,100.00
2023-05-24T04:36:11.756Z,100.00
2023-05-24T04:37:09.107Z,100.00
2023-05-24T04:38:05.963Z,100.00
2023-05-24T04:39:05.203Z,100.00
2023-05-24T04:40:04.348Z,100.00
2023-05-24T04:41:01.747Z,100.00
2023-05-24T04:42:00.451Z,100.00
2023-05-24T04:42:57.344Z,100.00
2023-05-24T04:43:54.583Z,100.00
2023-05-24T04:44:51.428Z,100.00
2023-05-24T04:45:48.402Z,100.00
2023-05-24T04:46:45.349Z,100.00
2023-05-24T04:47:42.589Z,100.00
2023-05-24T04:48:39.560Z,100.00
2023-05-24T04:49:36.346Z,100.00
2023-05-24T04:50:35.651Z,100.00
2023-05-24T04:51:33.265Z,100.00
2023-05-24T04:52:30.671Z,100.00
2023-05-24T04:53:27.565Z,100.00
2023-05-24T04:54:24.730Z,100.00
2023-05-24T04:55:21.771Z,100.00
2023-05-24T04:56:19.673Z,100.00
2023-05-24T04:57:16.641Z,100.00
2023-05-24T04:58:14.177Z,100.00
2023-05-24T04:59:11.030Z,100.00
2023-05-24T05:00:08.441Z,100.00
2023-05-24T05:01:05.472Z,100.00
2023-05-24T05:02:02.645Z,100.00
2023-05-24T05:02:59.643Z,100.00
2023-05-24T05:03:56.552Z,100.00
2023-05-24T05:04:53.751Z,100.00
2023-05-24T05:05:50.600Z,100.00
2023-05-24T05:06:48.355Z,100.00
2023-05-24T05:07:45.522Z,100.00
2023-05-24T05:08:42.317Z,100.00
2023-05-24T05:09:39.128Z,100.00
2023-05-24T05:10:36.138Z,100.00
2023-05-24T05:11:32.980Z,100.00
2023-05-24T05:12:29.760Z,100.00
2023-05-24T05:13:26.658Z,100.00
2023-05-24T05:14:23.581Z,100.00
2023-05-24T05:15:22.395Z,100.00
2023-05-24T05:16:20.514Z,100.00
2023-05-24T05:17:17.394Z,100.00
2023-05-24T05:18:14.417Z,100.00
2023-05-24T05:19:11.344Z,100.00
2023-05-24T05:20:08.737Z,100.00
2023-05-24T05:21:06.599Z,100.00
2023-05-24T05:22:03.595Z,100.00
2023-05-24T05:23:00.503Z,100.00
2023-05-24T05:23:57.365Z,100.00
2023-05-24T05:24:54.218Z,100.00
2023-05-24T05:25:51.187Z,100.00
2023-05-24T05:26:48.151Z,100.00
2023-05-24T05:27:44.987Z,100.00
2023-05-24T05:28:41.905Z,100.00
2023-05-24T05:29:38.785Z,100.00
2023-05-24T05:30:35.769Z,100.00
2023-05-24T05:31:32.669Z,100.00
2023-05-24T05:32:29.546Z,100.00
2023-05-24T05:33:26.602Z,100.00
2023-05-24T05:34:23.414Z,100.00
2023-05-24T05:35:20.392Z,100.00
2023-05-24T05:36:17.995Z,100.00
2023-05-24T05:37:14.874Z,100.00
2023-05-24T05:38:11.723Z,100.00
2023-05-24T05:39:11.761Z,100.00
2023-05-24T05:40:08.968Z,100.00
2023-05-24T05:41:05.780Z,100.00
2023-05-24T05:42:02.924Z,100.00
2023-05-24T05:42:59.821Z,100.00
2023-05-24T05:43:56.704Z,100.00
2023-05-24T05:44:53.528Z,100.00
2023-05-24T05:45:50.569Z,100.00
2023-05-24T05:46:47.369Z,100.00
2023-05-24T05:47:45.117Z,100.00
2023-05-24T05:48:42.884Z,100.00
2023-05-24T05:49:40.808Z,100.00
2023-05-24T05:50:37.700Z,100.00
2023-05-24T05:51:34.802Z,100.00
2023-05-24T05:52:31.630Z,100.00
2023-05-24T05:53:28.397Z,100.00
2023-05-24T05:54:25.646Z,100.00
2023-05-24T05:55:22.514Z,100.00
2023-05-24T05:56:19.371Z,100.00
2023-05-24T05:57:16.423Z,100.00
2023-05-24T05:58:13.309Z,100.00
2023-05-24T05:59:10.107Z,100.00
2023-05-24T06:00:09.085Z,100.00
2023-05-24T06:01:05.956Z,100.00
2023-05-24T06:02:04.474Z,100.00
2023-05-24T06:03:01.540Z,100.00
2023-05-24T06:03:58.454Z,100.00
2023-05-24T06:04:55.445Z,100.00
2023-05-24T06:05:52.554Z,100.00
2023-05-24T06:06:50.028Z,100.00
2023-05-24T06:07:47.618Z,100.00
2023-05-24T06:08:44.453Z,100.00
2023-05-24T06:09:41.479Z,100.00
2023-05-24T06:10:38.364Z,100.00
2023-05-24T06:11:35.238Z,100.00
2023-05-24T06:12:32.096Z,100.00
2023-05-24T06:13:29.270Z,100.00
2023-05-24T06:14:26.123Z,100.00
2023-05-24T06:15:23.107Z,100.00
2023-05-24T06:16:21.285Z,100.00
2023-05-24T06:17:18.694Z,100.00
2023-05-24T06:18:15.588Z,100.00
2023-05-24T06:19:13.639Z,100.00
2023-05-24T06:20:15.531Z,100.00
2023-05-24T06:21:12.543Z,100.00
2023-05-24T06:22:09.952Z,100.00
2023-05-24T06:23:07.209Z,100.00
2023-05-24T06:24:04.417Z,100.00
2023-05-24T06:25:01.262Z,100.00
2023-05-24T06:25:59.189Z,100.00
2023-05-24T06:26:56.064Z,100.00
2023-05-24T06:27:52.982Z,100.00
2023-05-24T06:28:49.934Z,100.00
2023-05-24T06:29:46.903Z,100.00
2023-05-24T06:30:44.084Z,100.00
2023-05-24T06:31:41.677Z,100.00
2023-05-24T06:32:38.639Z,100.00
2023-05-24T06:33:37.776Z,100.00
2023-05-24T06:34:35.141Z,100.00
2023-05-24T06:35:31.992Z,100.00
2023-05-24T06:36:29.238Z,100.00
2023-05-24T06:37:32.396Z,100.00
2023-05-24T06:38:33.252Z,100.00
2023-05-24T06:41:52.733Z,100.00
2023-05-24T07:13:33.757Z,100.00
2023-05-24T07:26:27.841Z,100.00
2023-05-24T09:05:12.894Z,100.00
2023-05-24T09:52:15.223Z,94.94
2023-05-24T10:08:09.751Z,83.06
2023-05-24T10:09:07.603Z,81.74
2023-05-24T10:10:07.924Z,79.42
2023-05-24T10:11:05.836Z,79.96
2023-05-24T10:12:07.475Z,80.52
2023-05-24T10:13:04.929Z,81.54
2023-05-24T10:14:04.779Z,82.58
2023-05-24T10:15:03.848Z,79.91
2023-05-24T10:16:00.741Z,79.56
2023-05-24T10:16:57.689Z,79.13
2023-05-24T10:17:56.882Z,78.56
2023-05-24T10:18:54.542Z,78.49
2023-05-24T10:19:52.378Z,78.97
2023-05-24T10:20:52.265Z,78.63
2023-05-24T10:21:49.852Z,80.07
2023-05-24T10:22:51.806Z,79.32
2023-05-24T10:23:54.421Z,78.48
2023-05-24T10:24:59.548Z,77.93
2023-05-24T10:26:04.496Z,75.26
2023-05-24T10:27:08.918Z,73.78
2023-05-24T10:28:12.415Z,73.77
2023-05-24T10:29:22.898Z,73.92
2023-05-24T10:30:42.906Z,74.76
2023-05-24T10:31:43.460Z,75.54
2023-05-24T10:32:44.790Z,75.73
2023-05-24T10:33:45.186Z,75.93
2023-05-24T10:34:43.624Z,75.51
2023-05-24T10:35:43.127Z,75.29
2023-05-24T10:36:40.671Z,74.43
2023-05-24T10:37:38.240Z,73.74
2023-05-24T10:38:37.275Z,72.49
2023-05-24T10:39:35.390Z,72.13
2023-05-24T10:40:32.488Z,71.66
2023-05-24T10:41:29.534Z,70.68
2023-05-24T10:42:26.901Z,70.28
2023-05-24T10:43:24.703Z,69.54
2023-05-24T10:44:22.588Z,71.16
2023-05-24T10:45:25.107Z,72.18
2023-05-24T10:46:22.812Z,70.47
2023-05-24T10:47:21.535Z,69.38
2023-05-24T10:48:24.665Z,72.50
2023-05-24T10:49:22.757Z,72.87
2023-05-24T10:50:21.987Z,72.82
2023-05-24T10:51:35.043Z,72.57
2023-05-24T10:52:36.658Z,72.11
2023-05-24T10:53:40.152Z,73.27
2023-05-24T10:54:39.789Z,74.66
2023-05-24T10:56:00.437Z,74.68
2023-05-24T10:57:04.937Z,74.08
2023-05-24T10:58:06.073Z,73.99
2023-05-24T10:59:06.230Z,74.12
2023-05-24T11:01:32.288Z,70.41
2023-05-24T11:02:35.869Z,70.08
2023-05-24T11:03:33.688Z,70.33
2023-05-24T11:04:37.719Z,69.01
2023-05-24T11:05:36.553Z,68.62
2023-05-24T11:07:09.737Z,69.64
2023-05-24T11:08:07.168Z,69.10
2023-05-24T11:09:06.326Z,70.55
2023-05-24T11:10:07.224Z,70.21
2023-05-24T11:11:22.245Z,70.57
2023-05-24T11:12:20.877Z,69.82
2023-05-24T11:13:19.793Z,68.85
2023-05-24T11:14:23.602Z,69.10
2023-05-24T11:15:25.145Z,69.17
2023-05-24T11:16:39.439Z,70.53
2023-05-24T11:18:14.154Z,69.80
2023-05-24T11:19:18.269Z,67.82
2023-05-24T11:20:15.742Z,68.01
2023-05-24T11:21:12.911Z,67.46
2023-05-24T11:22:09.875Z,68.22
2023-05-24T11:23:06.641Z,68.17
2023-05-24T11:24:03.945Z,68.95
2023-05-24T11:25:06.134Z,68.50
2023-05-24T11:26:03.974Z,68.85
2023-05-24T11:27:06.216Z,66.97
2023-05-24T11:28:07.485Z,64.80
2023-05-24T11:29:05.631Z,66.01
2023-05-24T11:30:04.517Z,67.21
2023-05-24T11:31:08.834Z,67.92
2023-05-24T11:32:05.809Z,68.34
2023-05-24T11:33:02.905Z,68.01
2023-05-24T11:34:02.871Z,69.49
2023-05-24T11:34:59.742Z,71.06
2023-05-24T11:35:56.656Z,72.60
2023-05-24T11:36:55.419Z,71.17
2023-05-24T11:37:53.241Z,68.94
2023-05-24T11:38:50.130Z,68.20
2023-05-24T11:39:54.306Z,67.79
2023-05-24T11:40:51.501Z,68.05
2023-05-24T11:41:48.235Z,68.55
2023-05-24T11:42:45.056Z,69.50
2023-05-24T11:43:42.128Z,71.18
2023-05-24T11:44:39.068Z,73.06
2023-05-24T11:45:36.038Z,73.03
2023-05-24T11:46:33.361Z,71.65
2023-05-24T11:47:30.411Z,70.94
2023-05-24T11:48:27.740Z,69.75
2023-05-24T11:49:25.005Z,70.40
2023-05-24T11:50:26.632Z,70.73
2023-05-24T11:51:33.161Z,71.19
2023-05-24T11:52:30.036Z,72.46
2023-05-24T11:53:26.831Z,72.25
2023-05-24T11:54:24.930Z,72.42
2023-05-24T11:55:24.856Z,72.35
2023-05-24T11:56:22.049Z,69.93
2023-05-24T11:57:29.668Z,67.60
2023-05-24T11:58:44.593Z,65.91
2023-05-24T11:59:41.777Z,65.63
2023-05-24T12:00:38.700Z,65.64
2023-05-24T12:01:35.615Z,64.80
2023-05-24T12:02:32.521Z,65.58
2023-05-24T12:03:29.514Z,65.82
2023-05-24T12:04:28.016Z,67.27
2023-05-24T12:05:24.974Z,66.81
2023-05-24T12:06:22.929Z,67.09
2023-05-24T12:07:19.691Z,67.31
2023-05-24T12:08:16.601Z,65.82
2023-05-24T12:09:13.739Z,66.04
2023-05-24T12:10:12.341Z,66.58
2023-05-24T12:11:09.288Z,68.18
2023-05-24T12:12:07.394Z,69.44
2023-05-24T12:13:05.386Z,69.81
2023-05-24T12:14:02.581Z,70.97
2023-05-24T12:14:59.410Z,69.57
2023-05-24T12:15:58.480Z,70.30
2023-05-24T12:16:57.201Z,70.16
2023-05-24T12:17:54.641Z,72.06
2023-05-24T12:19:02.988Z,73.48
2023-05-24T12:20:08.994Z,72.82
2023-05-24T12:21:11.480Z,72.08
2023-05-24T12:22:09.262Z,72.79
2023-05-24T12:23:09.103Z,71.61
2023-05-24T12:24:11.386Z,71.59
2023-05-24T12:25:09.579Z,71.75
2023-05-24T12:26:06.521Z,71.26
2023-05-24T12:27:08.990Z,70.47
2023-05-24T12:28:05.992Z,69.60
2023-05-24T12:29:03.528Z,68.89
2023-05-24T12:30:07.065Z,68.50
2023-05-24T12:31:05.080Z,67.28
2023-05-24T12:32:03.042Z,68.57
2023-05-24T12:33:00.662Z,69.24
2023-05-24T12:33:57.800Z,69.52
2023-05-24T12:34:54.936Z,64.50
2023-05-24T12:35:53.526Z,61.05
2023-05-24T12:36:50.460Z,61.19
2023-05-24T12:37:48.773Z,62.95
2023-05-24T12:38:45.685Z,63.45
2023-05-24T12:39:44.172Z,63.81
2023-05-24T12:40:44.628Z,63.03
2023-05-24T12:41:41.637Z,65.03
2023-05-24T12:42:38.864Z,68.37
2023-05-24T12:43:37.054Z,68.60
2023-05-24T12:44:38.810Z,69.68
2023-05-24T12:45:35.861Z,69.31
2023-05-24T12:46:32.664Z,69.41
2023-05-24T12:47:29.567Z,70.54
2023-05-24T12:48:26.360Z,71.22
2023-05-24T12:49:24.524Z,70.86
2023-05-24T12:50:23.313Z,71.79
2023-05-24T12:51:20.175Z,69.67
2023-05-24T12:52:17.763Z,67.94
2023-05-24T12:53:14.597Z,67.75
2023-05-24T12:54:11.406Z,68.08
2023-05-24T12:55:08.547Z,66.30
2023-05-24T12:56:05.663Z,64.54
2023-05-24T12:57:03.505Z,65.23
2023-05-24T12:58:02.667Z,64.01
2023-05-24T12:59:00.205Z,65.03
2023-05-24T12:59:57.095Z,63.67
2023-05-24T13:00:54.496Z,62.84
2023-05-24T13:01:52.681Z,65.23
2023-05-24T13:02:50.383Z,64.33
2023-05-24T13:03:47.375Z,64.16
2023-05-24T13:04:44.232Z,64.20
2023-05-24T13:05:41.294Z,64.02
2023-05-24T13:06:38.368Z,65.97
2023-05-24T13:07:36.162Z,63.66
2023-05-24T13:08:33.954Z,65.01
2023-05-24T13:09:30.843Z,66.36
2023-05-24T13:10:27.752Z,68.44
2023-05-24T13:11:25.385Z,70.21
2023-05-24T13:12:22.199Z,69.47
2023-05-24T13:13:19.049Z,68.68
2023-05-24T13:14:16.963Z,67.50
2023-05-24T13:15:14.196Z,65.84
2023-05-24T13:16:11.308Z,67.03
2023-05-24T13:17:08.225Z,66.29
2023-05-24T13:18:05.628Z,66.46
2023-05-24T13:19:02.774Z,67.16
2023-05-24T13:20:02.518Z,66.46
2023-05-24T13:21:00.820Z,66.45
2023-05-24T13:21:57.662Z,65.83
2023-05-24T13:22:54.622Z,66.73
2023-05-24T13:23:52.134Z,69.40
2023-05-24T13:24:49.004Z,69.81
2023-05-24T13:25:45.785Z,72.39
2023-05-24T13:26:42.525Z,73.00
2023-05-24T13:27:39.465Z,73.95
2023-05-24T13:28:36.535Z,71.95
2023-05-24T13:29:42.394Z,72.41
2023-05-24T13:30:42.919Z,72.47
2023-05-24T13:31:41.218Z,70.98
2023-05-24T13:32:40.916Z,70.36
2023-05-24T13:33:38.106Z,70.88
2023-05-24T13:34:34.954Z,71.82
2023-05-24T13:35:32.294Z,71.62
2023-05-24T13:36:29.152Z,72.78
2023-05-24T13:37:26.016Z,77.09
2023-05-24T13:38:23.402Z,82.29
2023-05-24T13:39:23.901Z,85.66
2023-05-24T13:40:21.085Z,87.76
2023-05-24T13:41:17.895Z,91.61
2023-05-24T13:42:14.926Z,93.57
2023-05-24T13:43:11.897Z,96.44
2023-05-24T13:44:08.820Z,96.58
2023-05-24T13:45:06.253Z,97.28
2023-05-24T13:46:03.430Z,100.00
2023-05-24T13:47:00.369Z,100.00
2023-05-24T13:48:03.819Z,100.00
2023-05-24T13:49:00.712Z,100.00
2023-05-24T13:49:57.536Z,100.00
2023-05-24T13:50:54.445Z,100.00
2023-05-24T13:51:53.828Z,100.00
2023-05-24T13:52:51.911Z,100.00
2023-05-24T13:53:49.364Z,100.00
2023-05-24T13:54:46.353Z,100.00
2023-05-24T13:55:43.226Z,100.00
2023-05-24T13:56:40.131Z,100.00
2023-05-24T13:57:50.549Z,100.00
2023-05-24T13:58:48.803Z,100.00
2023-05-24T13:59:45.611Z,100.00
2023-05-24T14:00:43.002Z,100.00
2023-05-24T14:01:40.754Z,100.00
2023-05-24T14:02:39.404Z,100.00
2023-05-24T14:03:37.018Z,100.00
2023-05-24T14:04:33.830Z,100.00
2023-05-24T14:05:31.339Z,100.00
2023-05-24T14:06:28.349Z,100.00
2023-05-24T14:07:25.162Z,100.00
2023-05-24T14:08:22.022Z,100.00
2023-05-24T14:09:21.134Z,100.00
2023-05-24T14:10:20.099Z,100.00
2023-05-24T14:11:19.589Z,100.00
2023-05-24T14:12:16.574Z,100.00
2023-05-24T14:13:32.117Z,100.00
2023-05-24T14:15:30.433Z,100.00
2023-05-24T14:16:27.283Z,100.00
2023-05-24T14:17:24.208Z,100.00
2023-05-24T14:18:21.355Z,100.00
2023-05-24T14:19:18.424Z,100.00
2023-05-24T14:20:15.326Z,100.00
2023-05-24T14:21:12.331Z,100.00
2023-05-24T14:22:09.255Z,100.00
2023-05-24T14:23:10.057Z,100.00
2023-05-24T14:24:07.349Z,100.00
2023-05-24T14:25:04.986Z,100.00
2023-05-24T14:26:02.451Z,100.00
2023-05-24T14:26:59.313Z,100.00
2023-05-24T14:27:56.079Z,100.00
2023-05-24T14:28:55.954Z,100.00
2023-05-24T14:29:53.014Z,100.00
2023-05-24T14:30:50.145Z,100.00
2023-05-24T14:31:47.076Z,100.00
2023-05-24T14:32:44.035Z,100.00
2023-05-24T14:33:40.787Z,100.00
2023-05-24T14:34:37.642Z,100.00
2023-05-24T14:35:38.307Z,100.00
2023-05-24T14:36:35.453Z,100.00
2023-05-24T14:37:32.284Z,100.00
2023-05-24T14:38:29.199Z,100.00
2023-05-24T14:39:26.051Z,100.00
2023-05-24T14:40:23.025Z,100.00
2023-05-24T14:41:19.885Z,100.00
2023-05-24T14:42:16.796Z,100.00
2023-05-24T14:43:13.639Z,100.00
2023-05-24T14:44:10.508Z,100.00
2023-05-24T14:45:08.212Z,100.00
2023-05-24T14:46:05.312Z,100.00
2023-05-24T14:47:02.108Z,100.00
2023-05-24T14:47:59.091Z,100.00
2023-05-24T14:48:56.296Z,100.00
2023-05-24T14:49:54.312Z,100.00
2023-05-24T14:50:51.204Z,100.00
2023-05-24T14:51:50.909Z,100.00
2023-05-24T14:52:47.758Z,100.00
2023-05-24T14:53:45.305Z,100.00
2023-05-24T14:54:42.136Z,100.00
2023-05-24T14:55:42.069Z,100.00
2023-05-24T14:56:39.482Z,100.00
2023-05-24T14:57:36.530Z,100.00
2023-05-24T14:58:33.361Z,100.00
2023-05-24T14:59:30.263Z,100.00
2023-05-24T15:00:28.601Z,100.00
2023-05-24T15:01:26.382Z,100.00
2023-05-24T15:02:23.502Z,100.00
2023-05-24T15:03:20.597Z,100.00
2023-05-24T15:04:17.712Z,100.00
2023-05-24T15:05:14.534Z,100.00
2023-05-24T15:07:26.282Z,100.00
2023-05-24T15:08:23.117Z,100.00
2023-05-24T15:09:19.943Z,100.00
2023-05-24T15:10:16.813Z,100.00
2023-05-24T15:11:13.592Z,100.00
2023-05-24T15:12:11.194Z,100.00
2023-05-24T15:13:08.274Z,100.00
2023-05-24T15:14:05.552Z,100.00
2023-05-24T15:15:02.593Z,100.00
2023-05-24T15:16:00.738Z,100.00
2023-05-24T15:16:57.794Z,100.00
2023-05-24T15:17:54.623Z,100.00
2023-05-24T15:18:52.193Z,100.00
2023-05-24T15:19:49.157Z,100.00
2023-05-24T15:20:46.453Z,100.00
2023-05-24T15:21:43.872Z,100.00
2023-05-24T15:22:40.770Z,100.00
2023-05-24T15:23:37.568Z,100.00
2023-05-24T15:24:34.414Z,100.00
2023-05-24T15:25:31.734Z,100.00
2023-05-24T15:26:28.542Z,100.00
2023-05-24T15:27:25.545Z,100.00
2023-05-24T15:28:25.428Z,100.00
2023-05-24T15:29:23.163Z,100.00
2023-05-24T15:30:20.447Z,100.00
2023-05-24T15:31:18.153Z,100.00
2023-05-24T15:32:14.948Z,100.00
2023-05-24T15:33:12.311Z,100.00
2023-05-24T15:34:09.153Z,100.00
2023-05-24T15:35:06.842Z,100.00
2023-05-24T15:36:04.785Z,100.00
2023-05-24T15:37:01.618Z,100.00
2023-05-24T15:37:58.413Z,100.00
2023-05-24T15:38:55.678Z,100.00
2023-05-24T15:39:52.724Z,100.00
2023-05-24T15:40:49.601Z,100.00
2023-05-24T15:41:46.498Z,100.00
2023-05-24T15:42:43.642Z,100.00
2023-05-24T15:43:40.443Z,100.00
2023-05-24T15:44:37.565Z,100.00
2023-05-24T15:45:34.709Z,100.00
2023-05-24T15:46:32.389Z,100.00
2023-05-24T15:47:30.445Z,100.00
2023-05-24T15:48:27.447Z,100.00
2023-05-24T15:49:25.646Z,100.00